Time;durP1;ratioP1;P1;durP2;ratioP2;P2;SDS_P1;SDS_P2;PMS_P1;PMS_P2;Temp;Humidity;BMP_temperature;BMP_pressure;BME280_temperature;BME280_humidity;BME280_pressure;Samples;Min_cycle;Max_cycle;Signal;HPM_P1;HPM_P2
2023/04/13 00:00:43;;;;;;;;;0.50;0.00;;;;;9.64;67.93;100415.13;5076098;28;45307;-76
2023/04/13 00:03:11;;;;;;;;;2.75;1.00;;;;;9.67;67.83;100416.09;5077173;28;45371;-69
2023/04/13 00:05:38;;;;;;;;;0.00;0.00;;;;;9.65;67.74;100417.78;5096805;28;45397;-74
2023/04/13 00:08:04;;;;;;;;;0.00;0.00;;;;;9.56;68.91;100422.69;5092607;28;45151;-69
2023/04/13 00:10:40;;;;;;;;;0.00;0.00;;;;;9.59;69.64;100416.69;5088842;28;46182;-70
2023/04/13 00:13:07;;;;;;;;;0.00;0.00;;;;;9.61;69.13;100410.69;5071563;28;45342;-73
2023/04/13 00:15:35;;;;;;;;;0.75;0.00;;;;;9.54;69.52;100399.16;5072661;28;45524;-69
2023/04/13 00:18:02;;;;;;;;;0.00;0.00;;;;;9.51;69.46;100404.31;5076758;28;45501;-69
2023/04/13 00:20:28;;;;;;;;;0.00;0.00;;;;;9.46;68.87;100389.34;5075558;28;45572;-68
2023/04/13 00:22:53;;;;;;;;;1.00;0.75;;;;;9.60;69.37;100415.84;5054798;28;45406;-68
2023/04/13 00:25:19;;;;;;;;;0.00;0.00;;;;;9.59;69.10;100416.69;5075793;28;45379;-69
2023/04/13 00:27:45;;;;;;;;;2.75;0.00;;;;;9.63;68.72;100416.84;5076898;28;45334;-79
2023/04/13 00:30:14;;;;;;;;;1.00;0.00;;;;;9.63;69.11;100419.47;5049121;28;46226;-73
2023/04/13 00:32:42;;;;;;;;;0.00;0.00;;;;;9.67;69.65;100417.81;5041103;28;45575;-68
2023/04/13 00:35:09;;;;;;;;;0.75;0.00;;;;;9.72;69.24;100427.56;5075338;28;45324;-69
2023/04/13 00:37:35;;;;;;;;;0.00;0.00;;;;;9.63;69.42;100402.91;5075631;28;45417;-69
2023/04/13 00:40:00;;;;;;;;;0.50;0.00;;;;;9.64;69.13;100384.69;5066526;28;45959;-77
2023/04/13 00:42:26;;;;;;;;;1.00;0.00;;;;;9.70;70.07;100397.94;5071837;28;45399;-68
2023/04/13 00:44:52;;;;;;;;;0.25;0.00;;;;;9.61;70.41;100374.19;5074807;28;45433;-69
2023/04/13 00:47:27;;;;;;;;;0.00;0.00;;;;;9.58;70.10;100376.69;5057780;28;45414;-69
2023/04/13 00:49:59;;;;;;;;;0.00;0.00;;;;;9.66;70.22;100384.75;5074278;28;46127;-68
2023/04/13 00:52:25;;;;;;;;;0.00;0.00;;;;;9.63;70.32;100384.63;5065258;27;45724;-68
2023/04/13 00:54:55;;;;;;;;;1.00;0.00;;;;;9.69;69.96;100392.69;5057054;28;45413;-68
2023/04/13 00:57:21;;;;;;;;;0.00;0.00;;;;;9.72;69.17;100393.63;5076160;28;45351;-68
2023/04/13 00:59:48;;;;;;;;;0.00;0.00;;;;;9.71;69.33;100381.44;5075488;28;46234;-70
2023/04/13 01:02:15;;;;;;;;;0.00;0.00;;;;;9.63;69.02;100379.44;5062479;28;45484;-78
2023/04/13 01:04:41;;;;;;;;;0.00;0.00;;;;;9.71;68.79;100388.41;5056983;28;45312;-78
2023/04/13 01:07:28;;;;;;;;;0.00;0.00;;;;;9.70;68.36;100397.94;5056720;28;45443;-79
2023/04/13 01:10:04;;;;;;;;;0.00;0.00;;;;;9.70;68.74;100405.75;5072696;28;46098;-78
2023/04/13 01:12:45;;;;;;;;;0.00;0.00;;;;;9.66;69.47;100409.09;5074245;28;45441;-78
2023/04/13 01:15:13;;;;;;;;;1.25;0.00;;;;;9.69;70.13;100408.34;5071397;28;45487;-79
2023/04/13 01:17:42;;;;;;;;;0.00;0.00;;;;;9.71;68.98;100391.00;5074156;28;45638;-78
2023/04/13 01:20:13;;;;;;;;;1.50;0.00;;;;;9.76;68.86;100392.00;5073978;28;45542;-76
2023/04/13 01:22:44;;;;;;;;;0.00;0.00;;;;;9.78;68.67;100389.47;5074825;28;45619;-72
2023/04/13 01:25:37;;;;;;;;;0.25;0.00;;;;;9.76;68.76;100390.28;5054719;28;45659;-69
2023/04/13 01:28:06;;;;;;;;;0.00;0.00;;;;;9.75;68.87;100372.88;5075218;28;45595;-69
2023/04/13 01:30:33;;;;;;;;;0.75;0.00;;;;;9.75;69.19;100370.28;5075858;28;46344;-73
2023/04/13 01:33:01;;;;;;;;;0.00;0.00;;;;;9.75;69.29;100367.66;5075422;28;45464;-77
2023/04/13 01:35:28;;;;;;;;;0.00;0.00;;;;;9.72;68.95;100361.47;5075922;28;45516;-79
2023/04/13 01:37:56;;;;;;;;;0.00;0.00;;;;;9.65;68.68;100346.44;5077070;28;45338;-79
2023/04/13 01:40:23;;;;;;;;;0.00;0.00;;;;;9.51;68.83;100336.50;5077143;28;46219;-69
2023/04/13 01:42:49;;;;;;;;;1.75;0.00;;;;;9.40;68.96;100327.44;5077170;28;45302;-69
2023/04/13 01:45:19;;;;;;;;;0.00;0.00;;;;;9.32;68.73;100323.72;5077363;28;45623;-69
2023/04/13 01:48:08;;;;;;;;;0.00;0.00;;;;;9.22;68.83;100314.72;5077790;28;45403;-68
2023/04/13 01:50:39;;;;;;;;;0.00;0.00;;;;;9.10;69.07;100317.81;5075970;28;45578;-69
2023/04/13 01:53:17;;;;;;;;;0.00;0.00;;;;;9.03;69.05;100315.88;5075796;28;45380;-68
2023/04/13 01:55:44;;;;;;;;;0.00;0.00;;;;;8.98;69.09;100319.16;5076458;28;45561;-69
2023/04/13 01:58:12;;;;;;;;;0.00;0.00;;;;;8.74;68.92;100278.44;5076822;28;45327;-79
2023/04/13 02:00:41;;;;;;;;;0.00;0.00;;;;;8.94;69.75;100315.56;5057199;28;45498;-72
2023/04/13 02:03:09;;;;;;;;;0.00;0.00;;;;;8.89;69.36;100317.13;5076179;28;45505;-69
2023/04/13 02:05:39;;;;;;;;;0.00;0.00;;;;;8.91;70.13;100321.56;5076295;28;45595;-71
2023/04/13 02:08:08;;;;;;;;;0.00;0.00;;;;;8.94;69.76;100326.00;5076565;27;45607;-69
2023/04/13 02:10:36;;;;;;;;;0.25;0.00;;;;;8.99;68.92;100328.72;5076146;28;45402;-68
2023/04/13 02:13:08;;;;;;;;;0.25;0.00;;;;;9.01;69.17;100329.66;5077308;28;45344;-72
2023/04/13 02:15:36;;;;;;;;;0.00;0.00;;;;;8.99;68.55;100333.94;5076402;28;45513;-78
2023/04/13 02:18:05;;;;;;;;;0.00;0.00;;;;;9.03;69.23;100356.66;5077443;28;45355;-77
2023/04/13 02:20:41;;;;;;;;;0.00;0.00;;;;;9.05;70.66;100379.34;5075102;28;46115;-69
2023/04/13 02:23:08;;;;;;;;;2.00;0.00;;;;;9.02;70.45;100388.78;5075469;28;45486;-69
2023/04/13 02:25:34;;;;;;;;;0.00;0.00;;;;;9.02;70.67;100396.59;5076261;28;45407;-69
2023/04/13 02:28:00;;;;;;;;;0.00;0.00;;;;;9.03;71.09;100396.66;5076282;28;45657;-69
2023/04/13 02:30:26;;;;;;;;;0.00;0.00;;;;;8.97;71.15;100396.41;5075871;28;45527;-69
2023/04/13 02:32:54;;;;;;;;;0.50;0.50;;;;;8.87;71.86;100394.34;5075920;28;45538;-69
2023/04/13 02:35:20;;;;;;;;;0.00;0.00;;;;;8.84;71.87;100389.91;5075535;28;45864;-69
2023/04/13 02:37:47;;;;;;;;;0.00;0.00;;;;;8.91;71.66;100398.81;5075241;28;45512;-68
2023/04/13 02:40:13;;;;;;;;;0.25;0.00;;;;;8.93;71.50;100394.53;5075753;28;46271;-69
2023/04/13 02:42:40;;;;;;;;;0.00;0.00;;;;;9.00;72.27;100403.47;5075788;28;45485;-73
2023/04/13 02:45:07;;;;;;;;;0.50;0.00;;;;;8.98;71.76;100389.50;5077462;28;45311;-73
2023/04/13 02:47:33;;;;;;;;;0.00;0.00;;;;;9.01;71.98;100389.59;5079881;27;45529;-75
2023/04/13 02:50:03;;;;;;;;;0.00;0.00;;;;;8.99;72.66;100388.66;5057871;28;46317;-69
2023/04/13 02:52:28;;;;;;;;;0.50;0.25;;;;;8.91;72.16;100378.88;5074552;28;45558;-71
2023/04/13 02:54:54;;;;;;;;;2.50;1.25;;;;;8.89;72.32;100375.34;5041288;28;45469;-72
2023/04/13 02:57:21;;;;;;;;;0.25;0.00;;;;;8.96;71.89;100369.50;5066827;28;45444;-74
2023/04/13 02:59:47;;;;;;;;;0.00;0.00;;;;;9.03;71.47;100367.06;5078691;27;46043;-69
2023/04/13 03:02:13;;;;;;;;;1.00;0.00;;;;;9.08;70.83;100374.22;5079043;28;45610;-69
2023/04/13 03:04:38;;;;;;;;;0.00;0.00;;;;;9.13;71.29;100364.84;5078671;28;45430;-69
2023/04/13 03:07:08;;;;;;;;;0.75;0.00;;;;;9.16;70.77;100353.63;5061497;28;45414;-69
2023/04/13 03:09:38;;;;;;;;;0.00;0.00;;;;;9.05;71.29;100341.97;5078818;28;47634;-79
2023/04/13 03:12:06;;;;;;;;;1.00;0.00;;;;;9.14;71.79;100358.78;5078805;28;45487;-71
2023/04/13 03:14:32;;;;;;;;;0.00;0.00;;;;;9.12;71.84;100363.06;5063536;28;45666;-79
2023/04/13 03:16:57;;;;;;;;;0.75;0.00;;;;;9.06;71.86;100372.41;5079143;28;45607;-69
2023/04/13 03:19:25;;;;;;;;;0.00;0.00;;;;;9.04;71.01;100355.84;5078873;27;45176;-68
2023/04/13 03:21:51;;;;;;;;;0.50;0.00;;;;;9.05;70.97;100336.75;5078236;28;45324;-69
2023/04/13 03:24:17;;;;;;;;;0.00;0.00;;;;;9.03;70.60;100346.25;5078067;28;45710;-69
2023/04/13 03:26:42;;;;;;;;;0.00;0.00;;;;;8.97;70.97;100359.94;5078572;28;45365;-72
2023/04/13 03:29:08;;;;;;;;;0.00;0.00;;;;;8.92;70.35;100351.09;5078824;28;46058;-69
2023/04/13 03:31:33;;;;;;;;;0.00;0.00;;;;;8.94;69.73;100352.91;5059994;28;45217;-74
2023/04/13 03:33:59;;;;;;;;;0.00;0.00;;;;;8.93;69.71;100356.38;5078748;28;45414;-69
2023/04/13 03:36:26;;;;;;;;;0.00;0.00;;;;;8.90;70.11;100358.88;5078671;28;45475;-69
2023/04/13 03:38:52;;;;;;;;;1.75;1.75;;;;;8.83;69.57;100338.63;5078495;27;45972;-68
2023/04/13 03:41:18;;;;;;;;;0.00;0.00;;;;;8.81;69.87;100335.09;5078168;28;45362;-69
2023/04/13 03:43:44;;;;;;;;;0.00;0.00;;;;;8.78;69.82;100335.00;5062379;28;45512;-68
2023/04/13 03:46:10;;;;;;;;;0.00;0.00;;;;;8.70;69.66;100328.66;5071346;28;45383;-78
2023/04/13 03:48:35;;;;;;;;;0.00;0.00;;;;;8.82;69.28;100354.25;5048146;28;45498;-69
2023/04/13 03:51:01;;;;;;;;;0.00;0.00;;;;;8.79;69.84;100370.63;5040463;28;45392;-75
2023/04/13 03:53:27;;;;;;;;;0.00;0.00;;;;;8.79;69.81;100374.97;5043263;28;45580;-70
2023/04/13 03:55:53;;;;;;;;;0.00;0.00;;;;;8.67;70.12;100367.59;5076645;28;45505;-73
2023/04/13 03:58:18;;;;;;;;;0.00;0.00;;;;;8.78;70.65;100384.50;5077615;28;45472;-68
2023/04/13 04:00:44;;;;;;;;;0.00;0.00;;;;;8.76;71.31;100373.16;5077170;28;45786;-68
2023/04/13 04:03:10;;;;;;;;;0.00;0.00;;;;;8.73;70.51;100373.03;5078277;28;45589;-68
2023/04/13 04:05:38;;;;;;;;;0.00;0.00;;;;;8.66;69.90;100361.53;5078432;28;45635;-68
2023/04/13 04:08:04;;;;;;;;;0.00;0.00;;;;;8.69;69.85;100358.13;5077025;28;45301;-79
2023/04/13 04:10:30;;;;;;;;;1.00;0.00;;;;;8.74;70.04;100375.69;5077687;28;45381;-69
2023/04/13 04:12:56;;;;;;;;;0.00;0.00;;;;;8.76;69.95;100363.59;5077916;28;45376;-79
2023/04/13 04:15:22;;;;;;;;;0.00;0.00;;;;;8.65;69.76;100330.22;5078255;28;45334;-77
2023/04/13 04:17:47;;;;;;;;;0.00;0.00;;;;;8.17;69.77;100261.72;5055748;28;45704;-79
2023/04/13 04:20:13;;;;;;;;;0.00;0.00;;;;;8.62;70.01;100340.53;5071612;28;45404;-68
2023/04/13 04:22:40;;;;;;;;;0.00;0.00;;;;;8.68;69.60;100336.41;5077605;28;45425;-69
2023/04/13 04:25:07;;;;;;;;;0.00;0.00;;;;;8.53;69.70;100334.19;5077907;28;45483;-69
2023/04/13 04:27:37;;;;;;;;;0.00;0.00;;;;;8.54;70.02;100348.97;5077548;28;46113;-68
2023/04/13 04:30:09;;;;;;;;;0.00;0.00;;;;;8.49;70.04;100342.69;5077210;28;45530;-79
2023/04/13 04:32:35;;;;;;;;;0.00;0.00;;;;;8.47;69.81;100333.94;5075570;28;45444;-69
2023/04/13 04:35:03;;;;;;;;;0.00;0.00;;;;;8.50;70.45;100354.88;5077320;28;45539;-72
2023/04/13 04:37:36;;;;;;;;;0.00;0.00;;;;;8.46;70.13;100352.13;5077542;28;45235;-69
2023/04/13 04:40:08;;;;;;;;;1.75;1.00;;;;;8.45;69.82;100348.63;5076955;28;45395;-73
2023/04/13 04:42:37;;;;;;;;;0.00;0.00;;;;;8.46;69.67;100344.31;5061842;28;45683;-69
2023/04/13 04:45:05;;;;;;;;;0.00;0.00;;;;;8.50;69.74;100354.88;5077370;28;45406;-68
2023/04/13 04:47:31;;;;;;;;;0.00;0.00;;;;;8.48;69.51;100355.69;5077333;28;45481;-72
2023/04/13 04:49:58;;;;;;;;;0.00;0.00;;;;;8.49;69.68;100360.91;5076590;28;45549;-69
2023/04/13 04:52:26;;;;;;;;;0.00;0.00;;;;;8.41;69.35;100344.13;5077413;28;45464;-68
2023/04/13 04:54:52;;;;;;;;;0.00;0.00;;;;;8.46;70.02;100362.53;5077360;28;45667;-68
2023/04/13 04:57:18;;;;;;;;;0.00;0.00;;;;;8.41;69.84;100358.84;5076513;28;45512;-68
2023/04/13 04:59:44;;;;;;;;;0.00;0.00;;;;;8.36;70.07;100372.59;5076664;28;45573;-68
2023/04/13 05:02:09;;;;;;;;;0.00;0.00;;;;;8.40;70.58;100373.59;5077246;28;45754;-69
2023/04/13 05:04:36;;;;;;;;;0.00;0.00;;;;;8.45;69.38;100373.78;5077462;28;45442;-76
2023/04/13 05:07:01;;;;;;;;;0.00;0.00;;;;;8.46;68.78;100379.03;5074884;28;46077;-68
2023/04/13 05:09:27;;;;;;;;;0.00;0.00;;;;;8.42;68.83;100371.09;5077022;28;45304;-79
2023/04/13 05:11:53;;;;;;;;;0.00;0.00;;;;;8.50;68.77;100383.53;5077100;28;45506;-79
2023/04/13 05:14:18;;;;;;;;;0.00;0.00;;;;;8.53;68.17;100375.84;5075967;28;45403;-77
2023/04/13 05:16:44;;;;;;;;;0.00;0.00;;;;;8.55;68.69;100387.19;5076473;28;46117;-78
2023/04/13 05:19:11;;;;;;;;;0.00;0.00;;;;;8.48;68.56;100379.97;5058514;28;45493;-78
2023/04/13 05:21:37;;;;;;;;;0.00;0.00;;;;;8.55;68.98;100397.59;5075222;28;45245;-78
2023/04/13 05:24:03;;;;;;;;;0.00;0.00;;;;;8.48;68.41;100386.91;5071897;28;45435;-78
2023/04/13 05:26:29;;;;;;;;;0.00;0.00;;;;;8.61;68.63;100403.84;5068068;28;45581;-77
2023/04/13 05:28:55;;;;;;;;;0.00;0.00;;;;;8.59;68.59;100390.75;5075266;28;45554;-68
2023/04/13 05:31:23;;;;;;;;;0.00;0.00;;;;;8.60;69.06;100373.44;5071628;28;45500;-79
2023/04/13 05:33:49;;;;;;;;;0.00;0.00;;;;;8.53;69.63;100364.50;5046680;28;45403;-76
2023/04/13 05:36:14;;;;;;;;;0.00;0.00;;;;;8.49;69.69;100370.44;5073855;28;45605;-78
2023/04/13 05:38:40;;;;;;;;;0.00;0.00;;;;;8.42;70.14;100377.16;5063011;28;45517;-75
2023/04/13 05:41:06;;;;;;;;;0.00;0.00;;;;;8.42;70.47;100386.69;5061758;28;45417;-78
2023/04/13 05:43:33;;;;;;;;;3.00;3.00;;;;;8.41;70.58;100388.41;5076013;28;45430;-75
2023/04/13 05:45:59;;;;;;;;;0.00;0.00;;;;;8.43;70.41;100388.47;5076125;28;46030;-75
2023/04/13 05:48:25;;;;;;;;;0.00;0.00;;;;;8.42;70.69;100382.38;5075846;28;45438;-70
2023/04/13 05:50:58;;;;;;;;;0.00;0.00;;;;;8.34;70.92;100368.16;5074814;28;45290;-77
2023/04/13 05:53:24;;;;;;;;;0.00;0.00;;;;;8.32;70.61;100381.13;5065163;28;45367;-77
2023/04/13 05:55:51;;;;;;;;;0.00;0.00;;;;;8.32;70.86;100388.03;5076124;28;45498;-78
2023/04/13 05:58:20;;;;;;;;;1.00;0.00;;;;;8.38;71.13;100400.41;5057764;28;45382;-70
2023/04/13 06:00:46;;;;;;;;;1.00;1.00;;;;;8.36;71.33;100401.22;5057003;28;45465;-72
2023/04/13 06:03:13;;;;;;;;;0.00;0.00;;;;;8.36;70.84;100423.75;5073262;28;45406;-67
2023/04/13 06:05:39;;;;;;;;;0.00;0.00;;;;;8.38;70.94;100429.03;5075657;28;46292;-67
2023/04/13 06:08:04;;;;;;;;;0.00;0.00;;;;;8.37;70.57;100425.53;5075666;28;45472;-79
2023/04/13 06:10:30;;;;;;;;;0.00;0.00;;;;;8.36;69.93;100426.38;5074887;28;45752;-75
2023/04/13 06:12:56;;;;;;;;;0.00;0.00;;;;;8.31;70.20;100431.38;5058171;28;45505;-68
2023/04/13 06:15:22;;;;;;;;;0.00;0.00;;;;;8.32;70.32;100427.09;5074376;28;45555;-68
2023/04/13 06:17:51;;;;;;;;;0.00;0.00;;;;;8.20;70.29;100403.19;5069353;28;46012;-68
2023/04/13 06:20:16;;;;;;;;;0.00;0.00;;;;;8.25;69.60;100399.06;5069820;28;45538;-68
2023/04/13 06:22:42;;;;;;;;;0.00;0.00;;;;;8.35;69.18;100408.97;5080072;28;45455;-68
2023/04/13 06:25:09;;;;;;;;;0.00;0.00;;;;;8.35;69.49;100404.63;5058633;28;45448;-68
2023/04/13 06:27:35;;;;;;;;;0.00;0.00;;;;;8.38;69.71;100416.03;5061205;28;45520;-68
2023/04/13 06:30:01;;;;;;;;;4.00;3.00;;;;;8.37;69.39;100409.91;5079395;28;45518;-68
2023/04/13 06:32:26;;;;;;;;;2.50;2.50;;;;;8.31;69.70;100402.75;5078347;28;45620;-69
2023/04/13 06:34:52;;;;;;;;;1.00;1.00;;;;;8.37;70.09;100412.50;5078604;28;46028;-68
2023/04/13 06:37:18;;;;;;;;;7.25;7.00;;;;;8.43;69.88;100409.28;5079507;28;45360;-78
2023/04/13 06:39:44;;;;;;;;;2.00;2.00;;;;;8.45;69.63;100405.00;5078571;28;45335;-78
2023/04/13 06:42:09;;;;;;;;;5.25;4.00;;;;;8.36;69.08;100395.13;5078991;28;45303;-68
2023/04/13 06:44:35;;;;;;;;;5.25;4.50;;;;;8.45;69.71;100407.63;5078943;28;46151;-68
2023/04/13 06:47:00;;;;;;;;;2.00;1.00;;;;;8.38;69.73;100411.69;5074577;27;45512;-68
2023/04/13 06:49:26;;;;;;;;;0.00;0.00;;;;;8.43;69.49;100415.38;5075496;28;45516;-79
2023/04/13 06:51:52;;;;;;;;;1.00;1.00;;;;;8.49;69.79;100419.91;5078755;28;45465;-79
2023/04/13 06:54:17;;;;;;;;;9.50;8.50;;;;;8.59;70.29;100435.03;5078275;28;45437;-68
2023/04/13 06:56:43;;;;;;;;;18.50;15.75;;;;;8.67;70.52;100445.72;5078424;28;45667;-68
2023/04/13 06:59:09;;;;;;;;;68.25;51.25;;;;;8.72;70.90;100434.66;5077657;28;45509;-80
2023/04/13 07:01:34;;;;;;;;;4.75;4.00;;;;;8.78;70.66;100446.13;5078163;28;45324;-70
2023/04/13 07:04:01;;;;;;;;;8.50;4.75;;;;;8.78;70.81;100449.63;5070180;28;45534;-79
2023/04/13 07:06:27;;;;;;;;;2.25;1.50;;;;;8.74;70.39;100432.97;5061313;28;45484;-78
2023/04/13 07:08:53;;;;;;;;;9.00;8.25;;;;;8.92;70.17;100440.56;5076993;28;45512;-70
2023/04/13 07:11:18;;;;;;;;;3.00;2.50;;;;;8.99;69.18;100440.78;5078177;28;45525;-78
2023/04/13 07:13:44;;;;;;;;;4.00;2.75;;;;;9.04;68.60;100434.00;5078064;28;45556;-67
2023/04/13 07:16:11;;;;;;;;;1.00;1.00;;;;;9.06;68.82;100438.44;5077754;28;45471;-69
2023/04/13 07:18:37;;;;;;;;;0.00;0.00;;;;;9.14;67.69;100421.34;5065694;28;45621;-77
2023/04/13 07:21:03;;;;;;;;;4.00;3.75;;;;;9.46;67.50;100420.63;5074908;28;45538;-79
2023/04/13 07:23:28;;;;;;;;;3.00;3.00;;;;;9.75;66.60;100418.97;5077230;28;45773;-79
2023/04/13 07:25:54;;;;;;;;;3.00;2.75;;;;;10.29;65.29;100431.88;5058861;28;45631;-78
2023/04/13 07:28:19;;;;;;;;;2.00;2.00;;;;;11.85;64.22;100415.03;5077391;28;45244;-77
2023/04/13 07:30:45;;;;;;;;;2.00;1.25;;;;;12.71;60.06;100401.09;5075441;28;45539;-76
2023/04/13 07:33:11;;;;;;;;;1.00;1.00;;;;;12.32;58.70;100387.28;5074516;28;45540;-73
2023/04/13 07:35:37;;;;;;;;;0.25;0.25;;;;;11.98;59.57;100395.25;5076888;28;45430;-73
2023/04/13 07:38:03;;;;;;;;;3.00;3.00;;;;;11.84;59.93;100397.56;5077686;28;45570;-74
2023/04/13 07:40:29;;;;;;;;;1.00;1.00;;;;;12.29;60.30;100391.56;5077836;28;45402;-76
2023/04/13 07:42:55;;;;;;;;;1.75;1.25;;;;;12.93;56.96;100382.31;5078601;28;45659;-68
2023/04/13 07:45:21;;;;;;;;;0.75;0.75;;;;;12.46;58.26;100395.41;5077120;28;45433;-75
2023/04/13 07:47:47;;;;;;;;;4.00;3.00;;;;;11.93;59.02;100409.13;5078419;28;45449;-73
2023/04/13 07:50:13;;;;;;;;;3.00;2.00;;;;;11.53;59.11;100415.16;5049897;28;45457;-72
2023/04/13 07:52:39;;;;;;;;;1.50;1.00;;;;;11.17;60.13;100395.09;5073205;28;45547;-75
2023/04/13 07:55:06;;;;;;;;;1.25;1.25;;;;;10.93;60.89;100417.16;5077850;28;45172;-75
2023/04/13 07:57:31;;;;;;;;;1.00;1.00;;;;;10.65;61.29;100410.31;5078906;28;45449;-69
2023/04/13 07:59:57;;;;;;;;;2.00;2.00;;;;;10.53;62.03;100423.91;5059645;28;45422;-76
2023/04/13 08:02:23;;;;;;;;;2.00;1.25;;;;;10.40;62.36;100406.09;5076472;27;45433;-70
2023/04/13 08:04:49;;;;;;;;;2.00;2.00;;;;;10.40;62.88;100410.47;5077688;28;45438;-74
2023/04/13 08:07:14;;;;;;;;;3.00;2.75;;;;;10.42;63.09;100391.38;5078247;28;45466;-74
2023/04/13 08:09:41;;;;;;;;;3.00;3.00;;;;;10.68;62.52;100405.19;5078865;28;45323;-78
2023/04/13 08:12:07;;;;;;;;;1.25;1.25;;;;;10.79;61.99;100409.81;5078290;27;45355;-72
2023/04/13 08:14:33;;;;;;;;;0.50;0.50;;;;;10.76;62.61;100413.19;5077609;28;45554;-73
2023/04/13 08:17:00;;;;;;;;;0.50;0.50;;;;;10.77;62.38;100425.44;5078456;28;45226;-74
2023/04/13 08:19:26;;;;;;;;;0.00;0.00;;;;;10.73;62.26;100420.97;5074358;28;45249;-73
2023/04/13 08:21:52;;;;;;;;;10.75;9.75;;;;;10.48;64.15;100435.06;5075128;27;46236;-74
2023/04/13 08:24:21;;;;;;;;;3.25;2.50;;;;;10.32;63.47;100423.28;5075401;28;45566;-68
2023/04/13 08:26:47;;;;;;;;;0.00;0.00;;;;;10.28;63.61;100434.44;5059568;28;45316;-76
2023/04/13 08:29:13;;;;;;;;;3.00;2.00;;;;;10.09;64.28;100422.59;5068137;28;45407;-74
2023/04/13 08:31:39;;;;;;;;;1.00;1.00;;;;;10.02;64.43;100415.41;5072346;28;45741;-73
2023/04/13 08:34:05;;;;;;;;;4.00;4.00;;;;;10.06;64.74;100431.19;5076315;28;45379;-71
2023/04/13 08:36:32;;;;;;;;;1.00;0.00;;;;;10.28;64.93;100437.06;5077822;28;45302;-76
2023/04/13 08:38:57;;;;;;;;;1.00;1.00;;;;;10.57;64.43;100424.00;5048084;28;45484;-69
2023/04/13 08:41:24;;;;;;;;;1.50;0.75;;;;;11.15;64.17;100428.16;5077503;27;45482;-68
2023/04/13 08:43:50;;;;;;;;;2.00;2.00;;;;;11.88;62.29;100410.75;5077330;28;45703;-70
2023/04/13 08:46:21;;;;;;;;;5.00;4.00;;;;;12.49;60.95;100408.59;5076451;28;45480;-75
2023/04/13 08:48:48;;;;;;;;;9.50;6.00;;;;;12.79;59.84;100415.25;5077735;27;45367;-75
2023/04/13 08:51:14;;;;;;;;;6.00;4.50;;;;;12.81;59.52;100420.53;5077019;28;46110;-77
2023/04/13 08:53:40;;;;;;;;;21.50;16.00;;;;;12.91;58.48;100419.81;5077796;28;45300;-72
2023/04/13 08:56:09;;;;;;;;;2.75;2.75;;;;;13.31;58.74;100410.97;5080388;28;45480;-74
2023/04/13 08:58:40;;;;;;;;;7.00;4.00;;;;;13.36;57.99;100404.91;5084814;28;45683;-72
2023/04/13 09:01:05;;;;;;;;;0.25;0.00;;;;;13.40;57.49;100425.09;5085207;28;46318;-74
2023/04/13 09:03:39;;;;;;;;;5.00;4.00;;;;;13.23;55.06;100403.78;5080171;28;45496;-77
2023/04/13 09:06:10;;;;;;;;;3.00;2.00;;;;;13.13;56.90;100415.88;5077157;28;45416;-69
2023/04/13 09:08:35;;;;;;;;;3.00;3.00;;;;;13.03;57.52;100416.56;5055369;28;45441;-75
2023/04/13 09:11:03;;;;;;;;;2.00;2.00;;;;;12.99;58.13;100430.47;5061572;28;45516;-76
2023/04/13 09:13:29;;;;;;;;;1.00;1.00;;;;;12.91;57.92;100435.56;5076808;28;45335;-69
2023/04/13 09:15:55;;;;;;;;;1.00;1.00;;;;;12.88;57.64;100441.63;5077031;28;45406;-69
2023/04/13 09:18:21;;;;;;;;;1.00;1.00;;;;;12.88;58.34;100446.00;5076381;28;45391;-76
2023/04/13 09:20:57;;;;;;;;;0.00;0.00;;;;;12.88;58.66;100443.38;5077011;28;45468;-76
2023/04/13 09:23:23;;;;;;;;;4.00;2.00;;;;;12.86;57.69;100443.34;5077084;28;45413;-69
2023/04/13 09:26:03;;;;;;;;;2.75;2.50;;;;;12.60;57.68;100445.47;5077219;28;45387;-68
2023/04/13 09:28:29;;;;;;;;;5.00;5.00;;;;;12.31;58.10;100439.63;5076712;28;45315;-69
2023/04/13 09:31:04;;;;;;;;;19.25;16.75;;;;;12.19;58.51;100445.47;5076238;28;46203;-68
2023/04/13 09:33:34;;;;;;;;;2.00;1.00;;;;;12.16;58.44;100448.03;5045482;28;45332;-69
2023/04/13 09:36:09;;;;;;;;;2.00;2.00;;;;;11.95;59.00;100427.50;5073369;27;45276;-69
2023/04/13 09:38:34;;;;;;;;;2.00;1.00;;;;;11.95;59.58;100448.44;5075771;28;45465;-69
2023/04/13 09:41:00;;;;;;;;;18.75;16.00;;;;;11.81;59.58;100450.69;5076134;28;46005;-69
2023/04/13 09:43:34;;;;;;;;;3.00;2.00;;;;;11.93;59.22;100444.91;5061308;28;45335;-69
2023/04/13 09:46:00;;;;;;;;;1.00;1.00;;;;;12.28;58.92;100453.53;5075407;28;45407;-69
2023/04/13 09:48:26;;;;;;;;;1.00;0.50;;;;;12.48;58.11;100447.84;5076363;28;45482;-69
2023/04/13 09:50:59;;;;;;;;;3.00;3.00;;;;;12.45;58.33;100445.16;5045787;28;46337;-69
2023/04/13 09:53:26;;;;;;;;;3.00;2.00;;;;;12.43;58.69;100441.59;5074959;28;45425;-69
2023/04/13 09:55:58;;;;;;;;;2.25;1.50;;;;;12.45;58.80;100448.63;5083035;28;45363;-69
2023/04/13 09:58:25;;;;;;;;;0.00;0.00;;;;;12.64;58.64;100425.44;5083469;27;45529;-71
2023/04/13 10:00:53;;;;;;;;;0.00;0.00;;;;;12.94;56.81;100446.13;5082763;27;45479;-69
2023/04/13 10:03:21;;;;;;;;;1.00;1.00;;;;;12.91;56.80;100436.47;5082494;28;45288;-69
2023/04/13 10:05:47;;;;;;;;;0.75;0.25;;;;;13.12;56.53;100446.44;5083085;28;45502;-69
2023/04/13 10:08:13;;;;;;;;;2.75;1.00;;;;;13.37;55.99;100443.41;5082701;28;45387;-68
2023/04/13 10:10:39;;;;;;;;;2.00;2.00;;;;;13.28;55.90;100442.34;5082029;28;45395;-69
2023/04/13 10:13:31;;;;;;;;;1.00;1.00;;;;;13.24;55.95;100437.91;5082710;28;45590;-69
2023/04/13 10:16:21;;;;;;;;;0.00;0.00;;;;;13.30;55.12;100445.03;5083889;28;45482;-69
2023/04/13 10:19:01;;;;;;;;;0.00;0.00;;;;;13.24;55.43;100440.53;5084057;28;45420;-68
2023/04/13 10:21:34;;;;;;;;;0.50;0.00;;;;;13.10;54.84;100439.41;5083979;28;45482;-68
2023/04/13 10:24:02;;;;;;;;;0.00;0.00;;;;;13.00;55.88;100438.38;5083695;28;45567;-69
2023/04/13 10:26:30;;;;;;;;;0.00;0.00;;;;;13.01;55.80;100447.09;5083637;28;45267;-71
2023/04/13 10:28:55;;;;;;;;;1.00;1.00;;;;;12.92;56.09;100469.69;5084540;28;45189;-75
2023/04/13 10:31:21;;;;;;;;;0.00;0.00;;;;;12.67;56.91;100467.44;5082945;27;45207;-68
2023/04/13 10:33:50;;;;;;;;;0.00;0.00;;;;;12.59;56.77;100466.41;5083824;28;45294;-68
2023/04/13 10:36:16;;;;;;;;;0.75;0.00;;;;;12.56;57.49;100458.50;5065540;28;46043;-68
2023/04/13 10:38:45;;;;;;;;;0.00;0.00;;;;;12.58;58.07;100478.63;5083992;27;45351;-71
2023/04/13 10:41:23;;;;;;;;;0.00;0.00;;;;;12.50;58.76;100481.06;5065210;28;45583;-68
2023/04/13 10:44:00;;;;;;;;;0.00;0.00;;;;;12.37;58.55;100463.31;5082376;28;45450;-69
2023/04/13 10:46:26;;;;;;;;;0.25;0.00;;;;;12.33;59.41;100474.59;5064438;27;45464;-72
2023/04/13 10:48:57;;;;;;;;;0.00;0.00;;;;;12.30;58.75;100482.41;5082830;28;45477;-68
2023/04/13 10:51:24;;;;;;;;;6.50;4.75;;;;;12.30;59.85;100485.00;5081453;28;45951;-73
2023/04/13 10:53:50;;;;;;;;;16.50;16.25;;;;;12.26;60.19;100486.69;5082455;28;45464;-72
2023/04/13 10:56:17;;;;;;;;;6.25;5.50;;;;;12.17;61.46;100496.06;5082212;28;45431;-76
2023/04/13 10:58:50;;;;;;;;;0.00;0.00;;;;;12.14;60.99;100502.13;5065172;28;45492;-75
2023/04/13 11:01:16;;;;;;;;;0.00;0.00;;;;;12.08;61.73;100508.09;5083053;28;45959;-71
2023/04/13 11:03:43;;;;;;;;;0.00;0.00;;;;;12.09;61.34;100495.88;5083032;28;45470;-73
2023/04/13 11:06:09;;;;;;;;;0.00;0.00;;;;;12.19;60.79;100476.91;5079078;28;45264;-68
2023/04/13 11:08:38;;;;;;;;;4.25;3.50;;;;;12.38;61.34;100479.94;5078518;27;45310;-68
2023/04/13 11:11:04;;;;;;;;;2.00;1.50;;;;;12.65;60.13;100463.91;5078543;28;45514;-69
2023/04/13 11:13:30;;;;;;;;;2.00;2.00;;;;;12.84;60.12;100455.53;5077746;27;45476;-69
2023/04/13 11:16:01;;;;;;;;;1.00;1.00;;;;;13.21;59.35;100458.88;5078471;27;45347;-69
2023/04/13 11:18:27;;;;;;;;;4.00;3.00;;;;;13.33;59.67;100450.38;5078402;28;45310;-68
2023/04/13 11:20:53;;;;;;;;;1.50;1.50;;;;;13.48;58.50;100444.47;5057169;28;45367;-76
2023/04/13 11:23:19;;;;;;;;;4.00;2.00;;;;;13.72;57.12;100454.47;5073920;27;46059;-68
2023/04/13 11:25:56;;;;;;;;;5.00;5.00;;;;;13.77;56.52;100451.91;5048984;28;45426;-68
2023/04/13 11:28:24;;;;;;;;;1.00;1.00;;;;;13.76;56.85;100437.91;5078506;28;45392;-76
2023/04/13 11:30:56;;;;;;;;;3.00;2.25;;;;;13.84;56.93;100449.41;5077817;28;45450;-76